createdAt,value
2022-10-16T00:04:30.211Z,82
2022-10-16T00:10:10.438Z,80
2022-10-16T00:15:50.659Z,94
2022-10-16T00:21:31.028Z,94
2022-10-16T00:38:32.267Z,104
2022-10-16T00:55:33.209Z,98
2022-10-16T01:01:14.817Z,90
2022-10-16T01:06:55.944Z,86
2022-10-16T01:12:48.815Z,90
2022-10-16T01:18:29.211Z,96
2022-10-16T01:24:09.602Z,82
2022-10-16T01:29:50.025Z,96
2022-10-16T01:35:30.200Z,86
2022-10-16T01:41:10.523Z,94
2022-10-16T01:52:31.516Z,88
2022-10-16T01:58:14.362Z,94
2022-10-16T02:03:54.723Z,92
2022-10-16T02:09:35.011Z,102
2022-10-16T02:15:15.103Z,104
2022-10-16T02:20:55.714Z,94
2022-10-16T02:32:16.086Z,104
2022-10-16T02:37:59.133Z,96
2022-10-16T02:43:39.647Z,92
2022-10-16T02:49:22.892Z,90
2022-10-16T02:55:03.352Z,96
2022-10-16T03:00:44.383Z,104
2022-10-16T03:12:07.144Z,96
2022-10-16T03:17:49.431Z,104
2022-10-16T03:34:52.117Z,100
2022-10-16T03:40:32.230Z,88
2022-10-16T03:51:52.725Z,96
2022-10-16T03:57:33.061Z,84
2022-10-16T04:03:13.302Z,84
2022-10-16T04:08:53.306Z,82
2022-10-16T04:14:33.377Z,94
2022-10-16T04:20:13.827Z,92
2022-10-16T04:25:54.040Z,94
2022-10-16T04:31:34.107Z,90
2022-10-16T04:37:14.274Z,88
2022-10-16T04:42:54.465Z,90
2022-10-16T04:48:34.668Z,86
2022-10-16T04:59:54.757Z,84
2022-10-16T05:05:34.944Z,98
2022-10-16T05:11:15.386Z,100
2022-10-16T05:16:55.591Z,80
2022-10-16T05:28:16.391Z,76
2022-10-16T05:33:56.533Z,100
2022-10-16T05:39:36.601Z,100
2022-10-16T05:45:16.794Z,94
2022-10-16T05:50:57.134Z,98
2022-10-16T05:56:37.511Z,94
2022-10-16T06:02:18.874Z,94
2022-10-16T06:07:59.153Z,82
2022-10-16T06:13:39.319Z,82
2022-10-16T06:19:19.534Z,90
2022-10-16T06:30:40.192Z,94
2022-10-16T06:42:01.714Z,96
2022-10-16T06:47:42.016Z,84
2022-10-16T06:53:22.257Z,92
2022-10-16T06:59:02.080Z,82
2022-10-16T07:04:42.495Z,86
2022-10-16T07:10:25.728Z,98
2022-10-16T07:16:06.133Z,96
2022-10-16T07:21:48.988Z,82
2022-10-16T07:27:29.816Z,84
2022-10-16T07:33:10.201Z,98
2022-10-16T07:39:00.968Z,84
2022-10-16T07:44:42.139Z,96
2022-10-16T07:50:23.343Z,100
2022-10-16T07:56:03.944Z,108
2022-10-16T08:07:28.693Z,104
2022-10-16T08:13:09.457Z,96
2022-10-16T08:18:49.856Z,106
2022-10-16T08:24:30.342Z,100
2022-10-16T08:30:10.635Z,100
2022-10-16T08:35:50.866Z,98
2022-10-16T08:41:30.860Z,102
2022-10-16T08:47:11.095Z,100
2022-10-16T08:52:51.512Z,50
2022-10-16T08:58:32.178Z,48
2022-10-16T09:04:12.267Z,64
2022-10-16T09:09:52.616Z,82
2022-10-16T09:21:13.168Z,58
2022-10-16T09:26:53.328Z,54
2022-10-16T09:32:33.895Z,46
2022-10-16T09:38:13.832Z,4
2022-10-16T09:43:53.663Z,4
2022-10-16T09:49:36.393Z,0
2022-10-16T09:55:16.277Z,0
2022-10-16T10:00:56.002Z,0
2022-10-16T10:06:36.698Z,0
2022-10-16T10:12:28.407Z,0
2022-10-16T10:18:08.514Z,0
2022-10-16T10:23:48.281Z,84
2022-10-16T10:29:28.479Z,2
2022-10-16T10:35:16.324Z,26
2022-10-16T10:46:35.803Z,74
2022-10-16T10:52:16.402Z,0
2022-10-16T11:08:41.791Z,0
2022-10-16T11:14:22.238Z,0
2022-10-16T11:20:21.097Z,24
2022-10-16T11:26:04.305Z,0
2022-10-16T11:31:45.127Z,26
2022-10-16T11:37:30.368Z,0
2022-10-16T11:43:10.729Z,0
2022-10-16T11:48:50.970Z,14
2022-10-16T11:54:31.534Z,72
2022-10-16T12:00:15.073Z,0
2022-10-16T12:05:55.254Z,20
2022-10-16T12:11:35.105Z,0
2022-10-16T12:17:15.286Z,2
2022-10-16T12:22:55.135Z,18
2022-10-16T12:28:35.917Z,24
2022-10-16T12:34:16.585Z,14
2022-10-16T12:39:56.565Z,0
2022-10-16T12:45:37.134Z,0
2022-10-16T12:51:20.670Z,0
2022-10-16T12:57:00.945Z,0
2022-10-16T13:08:21.897Z,0
2022-10-16T13:14:02.601Z,0
2022-10-16T13:20:16.015Z,28
2022-10-16T13:26:00.095Z,32
2022-10-16T13:31:40.292Z,98
2022-10-16T13:37:24.595Z,102
2022-10-16T13:43:04.786Z,0
2022-10-16T13:54:26.382Z,16
2022-10-16T14:05:09.458Z,100
2022-10-16T14:10:49.733Z,94
2022-10-16T14:16:30.046Z,90
2022-10-16T14:22:10.339Z,86
2022-10-16T14:27:51.688Z,62
2022-10-16T14:33:32.166Z,76
2022-10-16T14:39:15.490Z,76
2022-10-16T14:44:55.682Z,90
2022-10-16T15:01:57.050Z,92
2022-10-16T15:07:37.458Z,84
2022-10-16T15:13:17.895Z,94
2022-10-16T15:18:58.602Z,84
2022-10-16T15:24:40.063Z,94
2022-10-16T15:30:21.538Z,78
2022-10-16T15:36:01.627Z,70
2022-10-16T15:52:25.816Z,125
2022-10-16T16:03:08.799Z,126
2022-10-16T16:08:50.526Z,60
2022-10-16T16:14:31.306Z,88
2022-10-16T16:20:13.182Z,72
2022-10-16T16:37:14.483Z,84
2022-10-16T16:42:54.454Z,70
2022-10-16T16:48:35.055Z,110
2022-10-16T16:54:15.446Z,98
2022-10-16T16:59:56.015Z,104
2022-10-16T17:05:36.306Z,112
2022-10-16T17:11:16.821Z,96
2022-10-16T17:16:57.443Z,98
2022-10-16T17:22:44.316Z,106
2022-10-16T17:28:25.764Z,106
2022-10-16T17:34:12.368Z,98
2022-10-16T17:39:58.396Z,104
2022-10-16T17:45:43.114Z,106
2022-10-16T17:51:26.300Z,96
2022-10-16T17:57:11.419Z,106
2022-10-16T18:02:55.169Z,94
2022-10-16T18:08:35.963Z,110
2022-10-16T18:14:15.903Z,94
2022-10-16T18:20:02.607Z,110
2022-10-16T18:25:46.006Z,104
2022-10-16T18:31:26.146Z,106
2022-10-16T18:37:14.656Z,106
2022-10-16T18:43:00.347Z,106
2022-10-16T18:48:48.944Z,98
2022-10-16T18:54:28.988Z,94
2022-10-16T19:00:09.881Z,104
2022-10-16T19:06:00.059Z,106
2022-10-16T19:17:34.524Z,104
2022-10-16T19:23:17.147Z,94
2022-10-16T19:28:57.690Z,104
2022-10-16T19:34:38.125Z,108
2022-10-16T19:40:24.316Z,98
2022-10-16T19:46:06.955Z,98
2022-10-16T19:51:57.995Z,106
2022-10-16T19:57:38.545Z,106
2022-10-16T20:03:18.809Z,104
2022-10-16T20:09:07.296Z,98
2022-10-16T20:14:47.597Z,96
2022-10-16T20:20:27.601Z,98
2022-10-16T20:26:07.697Z,104
2022-10-16T20:31:48.164Z,92
2022-10-16T20:37:30.514Z,94
2022-10-16T20:43:13.891Z,96
2022-10-16T20:48:54.071Z,96
2022-10-16T20:54:35.461Z,98
2022-10-16T21:00:15.475Z,104
2022-10-16T21:06:00.641Z,94
2022-10-16T21:11:40.779Z,114
2022-10-16T21:17:23.108Z,94
2022-10-16T21:23:03.077Z,100
2022-10-16T21:28:46.822Z,90
2022-10-16T21:34:30.238Z,106
2022-10-16T21:40:10.037Z,90
2022-10-16T21:45:50.010Z,122
2022-10-16T21:51:31.113Z,106
2022-10-16T21:57:11.504Z,104
2022-10-16T22:02:51.965Z,106
2022-10-16T22:08:32.932Z,90
2022-10-16T22:14:14.015Z,100
2022-10-16T22:19:54.146Z,98
2022-10-16T22:25:34.425Z,92
2022-10-16T22:31:15.057Z,100
2022-10-16T22:36:55.215Z,88
2022-10-16T22:42:36.277Z,86
2022-10-16T22:48:16.579Z,94
2022-10-16T22:53:56.807Z,98
2022-10-16T23:05:17.109Z,112
2022-10-16T23:16:38.591Z,98
2022-10-16T23:22:22.084Z,86
2022-10-16T23:28:02.482Z,98
2022-10-16T23:33:42.924Z,86
2022-10-16T23:39:23.328Z,94
2022-10-16T23:45:03.408Z,90
2022-10-16T23:50:43.602Z,86
2022-10-16T23:56:24.791Z,98
